Terminal Aerodrome Forecast
Issued by NWS

Home | Current Version | Previous Version | Text Only | Print | Product List | Glossary On
Versions: 1 2 3 4 5 6 7 8 9 10 11 12 13 14
820
FTUS46 KSEW 210523
TAFBFI
TAF
KBFI 210523Z 2106/2206 00000KT P6SM SCT060
     FM211100 00000KT P6SM OVC026
     FM211800 28004KT P6SM BKN028
     FM211900 31006KT P6SM SCT030 SCT250=

USA.gov is the U.S. government's official web portal to all federal, state and local government web resources and services.